createdAt,value
2019-03-20T00:02:29.925Z,101419.67
2019-03-20T00:05:02.430Z,101424.38
2019-03-20T00:07:35.141Z,101416.61
2019-03-20T00:10:10.621Z,101422.58
2019-03-20T00:12:43.021Z,101422.98
2019-03-20T00:15:15.828Z,101423.77
2019-03-20T00:17:48.478Z,101422.84
2019-03-20T00:24:53.277Z,101427.78
2019-03-20T00:28:22.372Z,101428.48
2019-03-20T00:30:59.251Z,101437.38
2019-03-20T00:33:32.238Z,101429.98
2019-03-20T00:36:06.618Z,101433.80
2019-03-20T00:38:39.776Z,101440.69
2019-03-20T00:41:27.128Z,101398.23
2019-03-20T00:44:00.162Z,101441.21
2019-03-20T00:46:39.307Z,101437.78
2019-03-20T00:49:19.818Z,101445.11
2019-03-20T00:52:04.398Z,101435.58
2019-03-20T00:54:42.457Z,101438.19
2019-03-20T00:57:28.887Z,101440.52
2019-03-20T01:00:01.992Z,101428.95
2019-03-20T01:05:41.398Z,101434.36
2019-03-20T01:08:18.837Z,101438.27
2019-03-20T01:11:12.621Z,101438.70
2019-03-20T01:14:20.606Z,101436.02
2019-03-20T01:17:18.867Z,101442.78
2019-03-20T01:19:52.938Z,101442.11
2019-03-20T01:22:31.890Z,101443.31
2019-03-20T01:25:34.996Z,101443.72
2019-03-20T01:28:21.908Z,101440.66
2019-03-20T01:30:54.986Z,101444.08
2019-03-20T01:33:29.428Z,101441.91
2019-03-20T01:36:02.242Z,101449.63
2019-03-20T01:38:38.356Z,101451.72
2019-03-20T01:41:11.309Z,101455.59
2019-03-20T01:43:45.997Z,101453.49
2019-03-20T01:46:35.588Z,101451.36
2019-03-20T01:49:20.777Z,101449.27
2019-03-20T01:55:38.696Z,101461.75
2019-03-20T01:59:54.497Z,101463.47
2019-03-20T02:06:51.369Z,101474.14
2019-03-20T02:11:48.850Z,101477.47
2019-03-20T02:13:25.452Z,101443.49
2019-03-20T02:16:21.070Z,101488.05
2019-03-20T02:18:54.087Z,101485.48
2019-03-20T02:21:37.696Z,101485.92
2019-03-20T02:24:46.481Z,101491.52
2019-03-20T02:27:48.266Z,101493.69
2019-03-20T02:30:26.874Z,101493.25
2019-03-20T02:33:03.226Z,101489.74
2019-03-20T02:35:51.542Z,101489.39
2019-03-20T02:38:45.188Z,101491.16
2019-03-20T02:41:41.412Z,101495.03
2019-03-20T02:44:16.490Z,101500.66
2019-03-20T02:47:08.634Z,101496.44
2019-03-20T02:50:21.417Z,101496.88
2019-03-20T02:53:08.633Z,101500.39
2019-03-20T03:16:31.877Z,101511.50
2019-03-20T03:20:26.168Z,101510.30
2019-03-20T03:23:29.511Z,101513.50
2019-03-20T03:26:04.287Z,101517.77
2019-03-20T03:28:41.358Z,101517.55
2019-03-20T03:31:14.211Z,101521.22
2019-03-20T03:34:36.578Z,101524.33
2019-03-20T03:37:59.561Z,101525.22
2019-03-20T03:40:43.558Z,101531.27
2019-03-20T03:43:19.329Z,101530.81
2019-03-20T03:45:56.079Z,101528.19
2019-03-20T03:48:36.318Z,101532.32
2019-03-20T03:51:10.532Z,101532.91
2019-03-20T03:53:49.339Z,101537.88
2019-03-20T03:56:23.909Z,101538.19
2019-03-20T03:58:56.759Z,101542.89
2019-03-20T04:01:30.772Z,101541.99
2019-03-20T04:04:05.071Z,101544.17
2019-03-20T04:06:40.758Z,101543.73
2019-03-20T04:10:10.678Z,101547.50
2019-03-20T04:14:01.109Z,101547.55
2019-03-20T04:21:23.709Z,101551.50
2019-03-20T04:23:56.890Z,101545.95
2019-03-20T04:26:59.238Z,101552.52
2019-03-20T04:29:37.844Z,101560.30
2019-03-20T04:33:12.357Z,101561.72
2019-03-20T04:35:46.529Z,101562.26
2019-03-20T04:38:19.329Z,101557.20
2019-03-20T04:40:53.868Z,101561.50
2019-03-20T04:44:12.610Z,101565.80
2019-03-20T04:47:19.676Z,101567.05
2019-03-20T04:50:26.376Z,101571.00
2019-03-20T04:53:13.418Z,101553.02
2019-03-20T04:55:46.282Z,101576.11
2019-03-20T04:58:19.620Z,101576.06
2019-03-20T05:00:52.177Z,101583.79
2019-03-20T05:03:25.414Z,101587.34
2019-03-20T05:05:58.009Z,101591.21
2019-03-20T05:08:30.578Z,101592.50
2019-03-20T05:11:03.168Z,101596.36
2019-03-20T05:13:36.341Z,101600.27
2019-03-20T05:16:09.049Z,101595.16
2019-03-20T05:18:43.248Z,101602.58
2019-03-20T05:21:20.708Z,101604.41
2019-03-20T05:23:55.557Z,101604.41
2019-03-20T05:26:29.700Z,101611.83
2019-03-20T05:29:02.508Z,101616.13
2019-03-20T05:31:35.228Z,101627.42
2019-03-20T05:34:08.030Z,101628.00
2019-03-20T05:36:41.299Z,101625.52
2019-03-20T05:39:15.767Z,101620.53
2019-03-20T05:41:48.219Z,101617.69
2019-03-20T05:44:20.998Z,101623.94
2019-03-20T05:46:54.048Z,101622.38
2019-03-20T05:49:28.646Z,101627.30
2019-03-20T05:52:01.368Z,101630.04
2019-03-20T05:54:33.919Z,101631.16
2019-03-20T05:57:06.540Z,101635.27
2019-03-20T05:59:51.651Z,101638.97
2019-03-20T06:05:13.027Z,101643.11
2019-03-20T06:08:03.528Z,101648.13
2019-03-20T06:09:40.133Z,101651.07
2019-03-20T06:13:00.886Z,101646.66
2019-03-20T06:27:34.598Z,101667.80
2019-03-20T06:30:14.689Z,101632.15
2019-03-20T06:47:20.377Z,101678.65
2019-03-20T06:50:16.115Z,101646.38
2019-03-20T06:52:54.398Z,101679.23
2019-03-20T06:55:45.252Z,101684.17
2019-03-20T06:58:31.120Z,101675.36
2019-03-20T14:09:58.937Z,101635.84
2019-03-20T14:12:47.179Z,101636.98
2019-03-20T14:15:40.108Z,101636.66
2019-03-20T14:34:28.400Z,101630.66
2019-03-20T14:45:28.298Z,101637.14
2019-03-20T14:51:53.328Z,101626.17
2019-03-20T14:57:27.183Z,101619.27
2019-03-20T15:03:44.328Z,101619.52
2019-03-20T15:12:15.589Z,101616.56
2019-03-20T15:20:16.876Z,101619.89
2019-03-20T15:31:45.036Z,101616.36
2019-03-20T15:55:33.657Z,101643.31
2019-03-20T16:02:02.408Z,101649.02
2019-03-20T16:05:09.817Z,101656.56
2019-03-20T16:08:05.989Z,101658.39
2019-03-20T16:10:51.621Z,101664.16
2019-03-20T16:13:38.404Z,101651.75
2019-03-20T16:24:15.098Z,101646.75
2019-03-20T16:27:08.701Z,101643.03
2019-03-20T16:29:43.889Z,101646.71
2019-03-20T16:32:24.740Z,101637.66
2019-03-20T16:35:01.949Z,101630.84
2019-03-20T16:37:35.978Z,101631.42
2019-03-20T16:40:28.005Z,101643.27
2019-03-20T16:43:19.915Z,101648.64
2019-03-20T16:46:23.806Z,101643.95
2019-03-20T16:49:05.321Z,101648.89
2019-03-20T16:51:37.918Z,101651.59
2019-03-20T16:54:10.629Z,101655.22
2019-03-20T16:57:14.728Z,101653.56
2019-03-20T16:59:58.188Z,101654.52
2019-03-20T17:06:43.628Z,101660.36
2019-03-20T17:13:26.376Z,101653.50
2019-03-20T17:16:01.498Z,101656.18
2019-03-20T17:18:35.867Z,101660.09
2019-03-20T17:21:10.028Z,101662.30
2019-03-20T17:23:42.477Z,101665.78
2019-03-20T17:26:15.077Z,101674.96
2019-03-20T17:28:47.488Z,101682.80
2019-03-20T17:31:18.906Z,101684.06
2019-03-20T17:33:51.238Z,101681.89
2019-03-20T17:36:24.200Z,101684.89
2019-03-20T17:38:58.479Z,101682.70
2019-03-20T17:41:36.794Z,101683.53
2019-03-20T17:44:07.959Z,101682.64
2019-03-20T17:46:42.008Z,101695.21
2019-03-20T17:49:14.578Z,101694.34
2019-03-20T17:51:47.218Z,101690.87
2019-03-20T17:54:19.585Z,101692.17
2019-03-20T17:56:52.087Z,101697.34
2019-03-20T17:59:24.538Z,101689.03
2019-03-20T18:01:57.018Z,101684.69
2019-03-20T18:04:30.056Z,101683.79
2019-03-20T18:07:03.779Z,101689.41
2019-03-20T18:09:36.098Z,101698.88
2019-03-20T18:12:08.547Z,101703.23
2019-03-20T18:14:41.099Z,101704.98
2019-03-20T18:17:14.108Z,101706.70
2019-03-20T18:19:55.040Z,101702.34
2019-03-20T18:23:34.190Z,101700.56
2019-03-20T18:26:45.390Z,101691.84
2019-03-20T18:29:20.656Z,101694.85
2019-03-20T18:31:53.868Z,101687.86
2019-03-20T18:34:45.476Z,101693.04
2019-03-20T18:38:00.220Z,101704.24
2019-03-20T18:40:35.439Z,101704.19
2019-03-20T18:43:10.776Z,101719.30
2019-03-20T18:45:52.313Z,101722.67
2019-03-20T18:48:27.158Z,101716.98
2019-03-20T18:51:04.870Z,101733.83
2019-03-20T18:53:41.608Z,101726.87
2019-03-20T18:56:14.135Z,101730.69
2019-03-20T18:58:46.658Z,101735.45
2019-03-20T19:01:19.398Z,101728.56
2019-03-20T19:03:51.818Z,101726.77
2019-03-20T19:06:26.919Z,101729.31
2019-03-20T19:09:00.350Z,101727.98
2019-03-20T19:11:34.330Z,101729.28
2019-03-20T19:14:07.238Z,101732.31
2019-03-20T19:16:44.558Z,101734.91
2019-03-20T19:19:17.278Z,101730.56
2019-03-20T19:21:49.714Z,101728.30
2019-03-20T19:24:22.302Z,101731.75
2019-03-20T19:26:55.112Z,101733.59
2019-03-20T19:29:27.788Z,101722.08
2019-03-20T19:32:00.379Z,101719.55
2019-03-20T19:34:33.378Z,101701.77
2019-03-20T19:37:15.789Z,101695.65
2019-03-20T19:39:49.698Z,101696.89
2019-03-20T19:42:22.211Z,101705.95
2019-03-20T19:44:56.508Z,101725.08
2019-03-20T19:47:31.291Z,101725.09
2019-03-20T19:50:12.008Z,101733.75
2019-03-20T19:52:54.078Z,101729.85
2019-03-20T19:56:17.617Z,101720.26
2019-03-20T19:58:56.229Z,101729.22
2019-03-20T20:01:28.687Z,101717.86
2019-03-20T20:04:01.188Z,101710.89
2019-03-20T20:06:33.649Z,101704.31
2019-03-20T20:09:09.419Z,101699.00
2019-03-20T20:11:43.069Z,101707.62
2019-03-20T20:14:15.898Z,101714.47
2019-03-20T20:16:48.508Z,101709.73
2019-03-20T20:19:21.172Z,101702.34
2019-03-20T20:21:54.808Z,101699.36
2019-03-20T20:24:27.178Z,101697.73
2019-03-20T20:27:00.258Z,101710.64
2019-03-20T20:29:33.012Z,101711.07
2019-03-20T20:32:06.461Z,101711.50
2019-03-20T20:34:38.888Z,101710.22
2019-03-20T20:37:11.609Z,101707.57
2019-03-20T20:39:44.316Z,101713.08
2019-03-20T20:42:16.798Z,101711.53
2019-03-20T20:44:49.417Z,101717.72
2019-03-20T20:47:21.968Z,101720.94
2019-03-20T20:49:54.718Z,101720.59
2019-03-20T20:52:27.489Z,101712.90
2019-03-20T20:55:00.326Z,101716.88
2019-03-20T20:57:32.942Z,101717.78
2019-03-20T21:00:07.174Z,101715.23
2019-03-20T21:02:39.858Z,101713.98
2019-03-20T21:05:12.603Z,101718.77
2019-03-20T21:07:44.969Z,101716.61
2019-03-20T21:10:17.728Z,101705.81
2019-03-20T21:12:56.374Z,101705.72
2019-03-20T21:15:38.677Z,101705.20
2019-03-20T21:18:57.947Z,101722.80
2019-03-20T21:21:44.569Z,101731.36
2019-03-20T21:24:27.898Z,101724.70
2019-03-20T21:27:44.388Z,101725.47
2019-03-20T21:30:34.749Z,101724.95
2019-03-20T21:33:08.978Z,101724.83
2019-03-20T21:36:20.938Z,101722.70
2019-03-20T21:38:54.211Z,101722.69
2019-03-20T21:42:29.518Z,101719.66
2019-03-20T21:45:46.598Z,101715.30
2019-03-20T21:48:19.577Z,101717.89
2019-03-20T21:51:37.378Z,101714.00
2019-03-20T21:55:15.888Z,101707.08
2019-03-20T21:57:56.096Z,101705.75
2019-03-20T22:01:37.656Z,101713.45
2019-03-20T22:04:14.031Z,101719.88
2019-03-20T22:07:14.599Z,101726.39
2019-03-20T22:10:44.086Z,101720.81
2019-03-20T22:17:31.568Z,101735.02
2019-03-20T22:20:43.971Z,101732.92
2019-03-20T22:23:59.619Z,101751.09
2019-03-20T22:27:11.636Z,101759.72
2019-03-20T22:29:51.557Z,101756.64
2019-03-20T22:41:06.258Z,101736.56
2019-03-20T22:44:17.040Z,101741.81
2019-03-20T22:47:40.698Z,101740.14
2019-03-20T22:50:40.851Z,101738.48
2019-03-20T22:53:56.050Z,101728.62
2019-03-20T22:57:26.728Z,101719.59
2019-03-20T22:59:59.798Z,101714.92
2019-03-20T23:02:47.878Z,101711.17
2019-03-20T23:05:21.397Z,101704.73
2019-03-20T23:07:55.948Z,101709.17
2019-03-20T23:10:28.979Z,101703.14
2019-03-20T23:13:01.950Z,101706.28
2019-03-20T23:15:34.759Z,101704.19
2019-03-20T23:18:07.788Z,101703.88
2019-03-20T23:20:40.795Z,101693.53
2019-03-20T23:23:13.990Z,101693.61
2019-03-20T23:25:46.997Z,101689.29
2019-03-20T23:28:20.238Z,101684.55
2019-03-20T23:30:53.307Z,101680.26
2019-03-20T23:33:26.179Z,101676.41
2019-03-20T23:35:59.318Z,101678.60
2019-03-20T23:38:32.498Z,101689.44
2019-03-20T23:41:24.596Z,101695.95
2019-03-20T23:43:57.894Z,101693.78
2019-03-20T23:46:30.848Z,101692.92
2019-03-20T23:49:07.568Z,101690.34
2019-03-20T23:51:41.307Z,101681.23
2019-03-20T23:54:16.133Z,101673.44
2019-03-20T23:56:49.269Z,101664.36
2019-03-20T23:59:22.259Z,101657.42
